sensor_id;sensor_type;location;lat;lon;timestamp;pressure;altitude;pressure_sealevel;temperature
48628;BMP280;34424;52.234;6.500;2024-01-30T00:04:20;102515.8;;;5.47
48628;BMP280;34424;52.234;6.500;2024-01-30T00:09:20;102518.1;;;5.43
48628;BMP280;34424;52.234;6.500;2024-01-30T00:14:20;102515.8;;;5.41
48628;BMP280;34424;52.234;6.500;2024-01-30T00:19:20;102508.9;;;5.34
48628;BMP280;34424;52.234;6.500;2024-01-30T00:24:20;102504.6;;;5.31
48628;BMP280;34424;52.234;6.500;2024-01-30T00:29:20;102499.3;;;5.36
48628;BMP280;34424;52.234;6.500;2024-01-30T00:34:20;102501.3;;;5.31
48628;BMP280;34424;52.234;6.500;2024-01-30T00:39:20;102502.5;;;5.21
48628;BMP280;34424;52.234;6.500;2024-01-30T00:44:21;102505;;;5.27
48628;BMP280;34424;52.234;6.500;2024-01-30T00:49:20;102506;;;5.32
48628;BMP280;34424;52.234;6.500;2024-01-30T00:54:20;102501.5;;;5.25
48628;BMP280;34424;52.234;6.500;2024-01-30T00:59:20;102508.9;;;5.23
48628;BMP280;34424;52.234;6.500;2024-01-30T01:04:20;102503;;;5.18
48628;BMP280;34424;52.234;6.500;2024-01-30T01:09:20;102499.8;;;5.12
48628;BMP280;34424;52.234;6.500;2024-01-30T01:14:20;102497.7;;;5.13
48628;BMP280;34424;52.234;6.500;2024-01-30T01:19:20;102502.4;;;5.03
48628;BMP280;34424;52.234;6.500;2024-01-30T01:24:20;102505;;;4.97
48628;BMP280;34424;52.234;6.500;2024-01-30T01:29:21;102508.9;;;4.98
48628;BMP280;34424;52.234;6.500;2024-01-30T01:34:21;102508.7;;;4.96
48628;BMP280;34424;52.234;6.500;2024-01-30T01:39:21;102511.3;;;4.88
48628;BMP280;34424;52.234;6.500;2024-01-30T01:44:21;102502.7;;;4.82
48628;BMP280;34424;52.234;6.500;2024-01-30T01:49:23;102497;;;4.84
48628;BMP280;34424;52.234;6.500;2024-01-30T01:54:21;102494;;;4.84
48628;BMP280;34424;52.234;6.500;2024-01-30T01:59:21;102491.1;;;4.84
48628;BMP280;34424;52.234;6.500;2024-01-30T02:04:21;102483.5;;;4.79
48628;BMP280;34424;52.234;6.500;2024-01-30T02:09:21;102479.1;;;4.86
48628;BMP280;34424;52.234;6.500;2024-01-30T02:14:21;102468.8;;;4.97
48628;BMP280;34424;52.234;6.500;2024-01-30T02:19:21;102467.5;;;5.01
48628;BMP280;34424;52.234;6.500;2024-01-30T02:24:21;102460.8;;;5.02
48628;BMP280;34424;52.234;6.500;2024-01-30T02:29:21;102453.8;;;5.04
48628;BMP280;34424;52.234;6.500;2024-01-30T02:34:21;102452;;;5.11
48628;BMP280;34424;52.234;6.500;2024-01-30T02:39:21;102450.2;;;5.09
48628;BMP280;34424;52.234;6.500;2024-01-30T02:44:21;102442.4;;;5.03
48628;BMP280;34424;52.234;6.500;2024-01-30T02:49:21;102442.8;;;5.08
48628;BMP280;34424;52.234;6.500;2024-01-30T02:54:21;102441;;;5.04
48628;BMP280;34424;52.234;6.500;2024-01-30T02:59:21;102444.7;;;4.9
48628;BMP280;34424;52.234;6.500;2024-01-30T03:04:21;102437.5;;;4.82
48628;BMP280;34424;52.234;6.500;2024-01-30T03:09:21;102428.8;;;4.82
48628;BMP280;34424;52.234;6.500;2024-01-30T03:14:21;102426.7;;;4.74
48628;BMP280;34424;52.234;6.500;2024-01-30T03:19:21;102420.8;;;4.75
48628;BMP280;34424;52.234;6.500;2024-01-30T03:24:21;102424.3;;;4.73
48628;BMP280;34424;52.234;6.500;2024-01-30T03:29:21;102418.2;;;4.73
48628;BMP280;34424;52.234;6.500;2024-01-30T03:34:21;102413.5;;;4.66
48628;BMP280;34424;52.234;6.500;2024-01-30T03:39:21;102401.5;;;4.62
48628;BMP280;34424;52.234;6.500;2024-01-30T03:44:21;102399.5;;;4.58
48628;BMP280;34424;52.234;6.500;2024-01-30T03:49:21;102403.8;;;4.53
48628;BMP280;34424;52.234;6.500;2024-01-30T03:54:21;102407.3;;;4.55
48628;BMP280;34424;52.234;6.500;2024-01-30T03:59:21;102409.4;;;4.58
48628;BMP280;34424;52.234;6.500;2024-01-30T04:04:21;102411.2;;;4.55
48628;BMP280;34424;52.234;6.500;2024-01-30T04:09:21;102395.5;;;4.55
48628;BMP280;34424;52.234;6.500;2024-01-30T04:14:21;102392.6;;;4.55
48628;BMP280;34424;52.234;6.500;2024-01-30T04:19:21;102386.3;;;4.5
48628;BMP280;34424;52.234;6.500;2024-01-30T04:24:21;102384.4;;;4.48
48628;BMP280;34424;52.234;6.500;2024-01-30T04:29:21;102377.6;;;4.46
48628;BMP280;34424;52.234;6.500;2024-01-30T04:34:21;102365.5;;;4.57
48628;BMP280;34424;52.234;6.500;2024-01-30T04:39:21;102367.3;;;4.69
48628;BMP280;34424;52.234;6.500;2024-01-30T04:44:21;102359.6;;;4.76
48628;BMP280;34424;52.234;6.500;2024-01-30T04:49:21;102365.8;;;4.82
48628;BMP280;34424;52.234;6.500;2024-01-30T04:54:21;102373.4;;;4.93
48628;BMP280;34424;52.234;6.500;2024-01-30T04:59:21;102375.8;;;4.99
48628;BMP280;34424;52.234;6.500;2024-01-30T05:04:21;102370;;;4.96
48628;BMP280;34424;52.234;6.500;2024-01-30T05:09:21;102368.7;;;5.04
48628;BMP280;34424;52.234;6.500;2024-01-30T05:14:21;102375.2;;;5.15
48628;BMP280;34424;52.234;6.500;2024-01-30T05:19:21;102381.4;;;5.27
48628;BMP280;34424;52.234;6.500;2024-01-30T05:24:21;102371.5;;;5.35
48628;BMP280;34424;52.234;6.500;2024-01-30T05:29:21;102361.8;;;5.49
48628;BMP280;34424;52.234;6.500;2024-01-30T05:34:21;102358.8;;;5.54
48628;BMP280;34424;52.234;6.500;2024-01-30T05:39:21;102352.4;;;5.59
48628;BMP280;34424;52.234;6.500;2024-01-30T05:44:21;102356.5;;;5.63
48628;BMP280;34424;52.234;6.500;2024-01-30T05:49:21;102357.7;;;5.7
48628;BMP280;34424;52.234;6.500;2024-01-30T05:54:21;102357.4;;;5.74
48628;BMP280;34424;52.234;6.500;2024-01-30T05:59:21;102355.5;;;5.79
48628;BMP280;34424;52.234;6.500;2024-01-30T06:04:21;102355.5;;;5.93
48628;BMP280;34424;52.234;6.500;2024-01-30T06:09:21;102358.6;;;6.02
48628;BMP280;34424;52.234;6.500;2024-01-30T06:14:21;102355.9;;;6.03
48628;BMP280;34424;52.234;6.500;2024-01-30T06:19:21;102357.1;;;6.11
48628;BMP280;34424;52.234;6.500;2024-01-30T06:24:21;102360.3;;;6.09
48628;BMP280;34424;52.234;6.500;2024-01-30T06:29:21;102353.9;;;6.15
48628;BMP280;34424;52.234;6.500;2024-01-30T06:34:21;102359.4;;;6.17
48628;BMP280;34424;52.234;6.500;2024-01-30T06:39:21;102350.2;;;6.25
48628;BMP280;34424;52.234;6.500;2024-01-30T06:44:21;102359;;;6.23
48628;BMP280;34424;52.234;6.500;2024-01-30T06:49:21;102363.6;;;6.27
48628;BMP280;34424;52.234;6.500;2024-01-30T06:54:21;102358.8;;;6.37
48628;BMP280;34424;52.234;6.500;2024-01-30T06:59:21;102361.8;;;6.43
48628;BMP280;34424;52.234;6.500;2024-01-30T07:04:21;102364.1;;;6.42
48628;BMP280;34424;52.234;6.500;2024-01-30T07:09:21;102365.3;;;6.45
48628;BMP280;34424;52.234;6.500;2024-01-30T07:14:21;102372.7;;;6.43
48628;BMP280;34424;52.234;6.500;2024-01-30T07:19:21;102366.6;;;6.53
48628;BMP280;34424;52.234;6.500;2024-01-30T07:24:21;102368.8;;;6.54
48628;BMP280;34424;52.234;6.500;2024-01-30T07:29:21;102362;;;6.49
48628;BMP280;34424;52.234;6.500;2024-01-30T07:34:21;102371.8;;;6.43
48628;BMP280;34424;52.234;6.500;2024-01-30T07:39:21;102373.9;;;6.5
48628;BMP280;34424;52.234;6.500;2024-01-30T07:44:21;102370.4;;;6.52
48628;BMP280;34424;52.234;6.500;2024-01-30T07:49:21;102382.1;;;6.57
48628;BMP280;34424;52.234;6.500;2024-01-30T07:54:21;102388.8;;;6.53
48628;BMP280;34424;52.234;6.500;2024-01-30T07:59:21;102388.8;;;6.54
48628;BMP280;34424;52.234;6.500;2024-01-30T08:04:21;102392.7;;;6.57
48628;BMP280;34424;52.234;6.500;2024-01-30T08:09:21;102402.2;;;6.63
48628;BMP280;34424;52.234;6.500;2024-01-30T08:14:21;102411.9;;;6.66
48628;BMP280;34424;52.234;6.500;2024-01-30T08:19:21;102408.6;;;6.75
48628;BMP280;34424;52.234;6.500;2024-01-30T08:24:21;102409.4;;;6.89
48628;BMP280;34424;52.234;6.500;2024-01-30T08:29:21;102411.3;;;6.92
48628;BMP280;34424;52.234;6.500;2024-01-30T08:34:21;102414.4;;;7.06
48628;BMP280;34424;52.234;6.500;2024-01-30T08:39:21;102428.5;;;7.11
48628;BMP280;34424;52.234;6.500;2024-01-30T08:44:21;102413.2;;;7.22
48628;BMP280;34424;52.234;6.500;2024-01-30T08:49:21;102406;;;7.37
48628;BMP280;34424;52.234;6.500;2024-01-30T08:54:21;102402.7;;;7.31
48628;BMP280;34424;52.234;6.500;2024-01-30T08:59:21;102417.4;;;7.32
48628;BMP280;34424;52.234;6.500;2024-01-30T09:04:21;102418.1;;;7.51
48628;BMP280;34424;52.234;6.500;2024-01-30T09:09:21;102417.5;;;7.56
48628;BMP280;34424;52.234;6.500;2024-01-30T09:14:21;102419.9;;;7.74
48628;BMP280;34424;52.234;6.500;2024-01-30T09:19:21;102425.1;;;7.97
48628;BMP280;34424;52.234;6.500;2024-01-30T09:24:21;102420.4;;;8.11
48628;BMP280;34424;52.234;6.500;2024-01-30T09:29:21;102410.3;;;8.31
48628;BMP280;34424;52.234;6.500;2024-01-30T09:34:21;102421.9;;;8.58
48628;BMP280;34424;52.234;6.500;2024-01-30T09:39:21;102419.6;;;8.76
48628;BMP280;34424;52.234;6.500;2024-01-30T09:44:21;102424.7;;;8.83
48628;BMP280;34424;52.234;6.500;2024-01-30T09:49:21;102427.1;;;8.83
48628;BMP280;34424;52.234;6.500;2024-01-30T09:54:21;102425.1;;;9.05
48628;BMP280;34424;52.234;6.500;2024-01-30T09:59:21;102427.7;;;9.26
48628;BMP280;34424;52.234;6.500;2024-01-30T10:04:21;102428.6;;;9.52
48628;BMP280;34424;52.234;6.500;2024-01-30T10:09:21;102426.6;;;9.39
48628;BMP280;34424;52.234;6.500;2024-01-30T10:14:21;102430.6;;;9.38
48628;BMP280;34424;52.234;6.500;2024-01-30T10:19:21;102430;;;9.39
48628;BMP280;34424;52.234;6.500;2024-01-30T10:24:23;102426.3;;;9.43
48628;BMP280;34424;52.234;6.500;2024-01-30T10:29:21;102425.2;;;9.45
48628;BMP280;34424;52.234;6.500;2024-01-30T10:34:21;102428;;;9.41
48628;BMP280;34424;52.234;6.500;2024-01-30T10:39:22;102435.7;;;9.61
48628;BMP280;34424;52.234;6.500;2024-01-30T10:44:23;102426.1;;;9.7
48628;BMP280;34424;52.234;6.500;2024-01-30T10:49:21;102434.7;;;9.82
48628;BMP280;34424;52.234;6.500;2024-01-30T10:54:21;102434.7;;;9.84
48628;BMP280;34424;52.234;6.500;2024-01-30T10:59:21;102430.1;;;9.88
48628;BMP280;34424;52.234;6.500;2024-01-30T11:04:21;102438.1;;;9.98
48628;BMP280;34424;52.234;6.500;2024-01-30T11:09:21;102433.5;;;10.41
48628;BMP280;34424;52.234;6.500;2024-01-30T11:14:26;102433;;;10.4
48628;BMP280;34424;52.234;6.500;2024-01-30T11:19:26;102436.5;;;10.25
48628;BMP280;34424;52.234;6.500;2024-01-30T11:24:21;102440.8;;;10.29
48628;BMP280;34424;52.234;6.500;2024-01-30T11:29:21;102436.8;;;10.26
48628;BMP280;34424;52.234;6.500;2024-01-30T11:34:21;102441;;;10.35
48628;BMP280;34424;52.234;6.500;2024-01-30T11:39:21;102436.2;;;10.34
48628;BMP280;34424;52.234;6.500;2024-01-30T11:44:21;102440.6;;;10.64
48628;BMP280;34424;52.234;6.500;2024-01-30T11:49:21;102435.4;;;10.98
48628;BMP280;34424;52.234;6.500;2024-01-30T11:54:21;102438.2;;;11.12
48628;BMP280;34424;52.234;6.500;2024-01-30T11:59:21;102431.2;;;10.73
48628;BMP280;34424;52.234;6.500;2024-01-30T12:04:21;102429;;;10.59
48628;BMP280;34424;52.234;6.500;2024-01-30T12:09:21;102434.7;;;10.44
48628;BMP280;34424;52.234;6.500;2024-01-30T12:14:21;102431.8;;;10.54
48628;BMP280;34424;52.234;6.500;2024-01-30T12:19:27;102430.3;;;10.5
48628;BMP280;34424;52.234;6.500;2024-01-30T12:24:21;102431;;;10.58
48628;BMP280;34424;52.234;6.500;2024-01-30T12:29:21;102433.4;;;10.66
48628;BMP280;34424;52.234;6.500;2024-01-30T12:34:21;102430;;;10.82
48628;BMP280;34424;52.234;6.500;2024-01-30T12:39:21;102428.1;;;10.67
48628;BMP280;34424;52.234;6.500;2024-01-30T12:44:21;102433.2;;;10.9
48628;BMP280;34424;52.234;6.500;2024-01-30T12:49:21;102436.4;;;10.92
48628;BMP280;34424;52.234;6.500;2024-01-30T12:54:21;102444;;;10.84
48628;BMP280;34424;52.234;6.500;2024-01-30T12:59:21;102443.3;;;10.84
48628;BMP280;34424;52.234;6.500;2024-01-30T13:04:21;102448;;;10.72
48628;BMP280;34424;52.234;6.500;2024-01-30T13:09:22;102443.1;;;10.78
48628;BMP280;34424;52.234;6.500;2024-01-30T13:14:21;102455.2;;;10.84
48628;BMP280;34424;52.234;6.500;2024-01-30T13:19:21;102456.3;;;10.69
48628;BMP280;34424;52.234;6.500;2024-01-30T13:24:21;102458.4;;;10.46
48628;BMP280;34424;52.234;6.500;2024-01-30T13:29:22;102457.3;;;10.53
48628;BMP280;34424;52.234;6.500;2024-01-30T13:34:24;102467.3;;;10.74
48628;BMP280;34424;52.234;6.500;2024-01-30T13:39:21;102469.6;;;10.92
48628;BMP280;34424;52.234;6.500;2024-01-30T13:44:21;102467.5;;;10.63
48628;BMP280;34424;52.234;6.500;2024-01-30T13:49:21;102477.3;;;10.42
48628;BMP280;34424;52.234;6.500;2024-01-30T13:54:22;102481.9;;;10.38
48628;BMP280;34424;52.234;6.500;2024-01-30T13:59:21;102490.9;;;10.41
48628;BMP280;34424;52.234;6.500;2024-01-30T14:04:21;102485.5;;;11
48628;BMP280;34424;52.234;6.500;2024-01-30T14:09:21;102489.4;;;10.56
48628;BMP280;34424;52.234;6.500;2024-01-30T14:14:21;102508.9;;;9.94
48628;BMP280;34424;52.234;6.500;2024-01-30T14:19:21;102510.4;;;9.59
48628;BMP280;34424;52.234;6.500;2024-01-30T14:24:21;102528.7;;;9.26
48628;BMP280;34424;52.234;6.500;2024-01-30T14:29:21;102535.2;;;9.12
48628;BMP280;34424;52.234;6.500;2024-01-30T14:34:21;102537.5;;;8.89
48628;BMP280;34424;52.234;6.500;2024-01-30T14:39:21;102547.9;;;8.76
48628;BMP280;34424;52.234;6.500;2024-01-30T14:44:21;102556.4;;;8.61
48628;BMP280;34424;52.234;6.500;2024-01-30T14:49:21;102546.6;;;8.6
48628;BMP280;34424;52.234;6.500;2024-01-30T14:54:21;102543.8;;;8.71
48628;BMP280;34424;52.234;6.500;2024-01-30T14:59:21;102559.6;;;8.67
48628;BMP280;34424;52.234;6.500;2024-01-30T15:04:21;102556.7;;;8.66
48628;BMP280;34424;52.234;6.500;2024-01-30T15:09:21;102565.9;;;8.56
48628;BMP280;34424;52.234;6.500;2024-01-30T15:14:21;102572.5;;;8.39
48628;BMP280;34424;52.234;6.500;2024-01-30T15:19:22;102578.6;;;8.27
48628;BMP280;34424;52.234;6.500;2024-01-30T15:24:23;102590.3;;;8.1
48628;BMP280;34424;52.234;6.500;2024-01-30T15:29:21;102601.8;;;7.94
48628;BMP280;34424;52.234;6.500;2024-01-30T15:34:23;102599.1;;;7.82
48628;BMP280;34424;52.234;6.500;2024-01-30T15:39:22;102595.5;;;7.8
48628;BMP280;34424;52.234;6.500;2024-01-30T15:44:24;102607.2;;;7.8
48628;BMP280;34424;52.234;6.500;2024-01-30T15:49:21;102603.9;;;7.73
48628;BMP280;34424;52.234;6.500;2024-01-30T15:54:21;102619.4;;;7.65
48628;BMP280;34424;52.234;6.500;2024-01-30T15:59:21;102624.8;;;7.69
48628;BMP280;34424;52.234;6.500;2024-01-30T16:04:21;102641.9;;;7.57
48628;BMP280;34424;52.234;6.500;2024-01-30T16:09:21;102644;;;7.5
48628;BMP280;34424;52.234;6.500;2024-01-30T16:14:21;102653.1;;;7.49
48628;BMP280;34424;52.234;6.500;2024-01-30T16:19:21;102658.9;;;7.48
48628;BMP280;34424;52.234;6.500;2024-01-30T16:24:21;102669.4;;;7.4
48628;BMP280;34424;52.234;6.500;2024-01-30T16:29:21;102679.3;;;7.31
48628;BMP280;34424;52.234;6.500;2024-01-30T16:34:24;102678.6;;;7.16
48628;BMP280;34424;52.234;6.500;2024-01-30T16:39:21;102690.2;;;7.18
48628;BMP280;34424;52.234;6.500;2024-01-30T16:44:21;102700.8;;;7.07
48628;BMP280;34424;52.234;6.500;2024-01-30T16:49:21;102702.8;;;6.91
48628;BMP280;34424;52.234;6.500;2024-01-30T16:54:21;102712;;;6.8
48628;BMP280;34424;52.234;6.500;2024-01-30T16:59:21;102722.5;;;6.77
48628;BMP280;34424;52.234;6.500;2024-01-30T17:04:21;102722.9;;;6.7
48628;BMP280;34424;52.234;6.500;2024-01-30T17:09:21;102730.3;;;6.71
48628;BMP280;34424;52.234;6.500;2024-01-30T17:14:21;102737.5;;;6.64
48628;BMP280;34424;52.234;6.500;2024-01-30T17:19:21;102745.6;;;6.57
48628;BMP280;34424;52.234;6.500;2024-01-30T17:24:21;102753.4;;;6.53
48628;BMP280;34424;52.234;6.500;2024-01-30T17:29:21;102758.2;;;6.51
48628;BMP280;34424;52.234;6.500;2024-01-30T17:34:21;102765.2;;;6.49
48628;BMP280;34424;52.234;6.500;2024-01-30T17:39:21;102775.2;;;6.5
48628;BMP280;34424;52.234;6.500;2024-01-30T17:44:21;102778.2;;;6.49
48628;BMP280;34424;52.234;6.500;2024-01-30T17:49:21;102773.4;;;6.48
48628;BMP280;34424;52.234;6.500;2024-01-30T17:54:21;102778.7;;;6.45
48628;BMP280;34424;52.234;6.500;2024-01-30T17:59:21;102786.8;;;6.44
48628;BMP280;34424;52.234;6.500;2024-01-30T18:04:21;102788.9;;;6.37
48628;BMP280;34424;52.234;6.500;2024-01-30T18:09:21;102801.6;;;6.31
48628;BMP280;34424;52.234;6.500;2024-01-30T18:14:21;102808.1;;;6.27
48628;BMP280;34424;52.234;6.500;2024-01-30T18:19:21;102822.8;;;6.24
48628;BMP280;34424;52.234;6.500;2024-01-30T18:24:21;102828.9;;;6.22
48628;BMP280;34424;52.234;6.500;2024-01-30T18:29:21;102835.1;;;6.13
48628;BMP280;34424;52.234;6.500;2024-01-30T18:34:21;102842.4;;;6.11
48628;BMP280;34424;52.234;6.500;2024-01-30T18:39:21;102852.2;;;6.13
48628;BMP280;34424;52.234;6.500;2024-01-30T18:44:21;102858.3;;;6.09
48628;BMP280;34424;52.234;6.500;2024-01-30T18:49:21;102862;;;6.08
48628;BMP280;34424;52.234;6.500;2024-01-30T18:54:21;102864.7;;;6.09
48628;BMP280;34424;52.234;6.500;2024-01-30T18:59:21;102874.8;;;6.02
48628;BMP280;34424;52.234;6.500;2024-01-30T19:04:21;102885.6;;;5.98
48628;BMP280;34424;52.234;6.500;2024-01-30T19:09:21;102898.6;;;6.01
48628;BMP280;34424;52.234;6.500;2024-01-30T19:14:21;102902.8;;;6
48628;BMP280;34424;52.234;6.500;2024-01-30T19:19:21;102908.9;;;5.99
48628;BMP280;34424;52.234;6.500;2024-01-30T19:24:21;102907.7;;;5.97
48628;BMP280;34424;52.234;6.500;2024-01-30T19:29:21;102916.9;;;5.93
48628;BMP280;34424;52.234;6.500;2024-01-30T19:34:21;102930.2;;;5.84
48628;BMP280;34424;52.234;6.500;2024-01-30T19:39:21;102937.3;;;5.8
48628;BMP280;34424;52.234;6.500;2024-01-30T19:44:21;102947.4;;;5.76
48628;BMP280;34424;52.234;6.500;2024-01-30T19:49:21;102950.5;;;5.73
48628;BMP280;34424;52.234;6.500;2024-01-30T19:54:21;102951.4;;;5.7
48628;BMP280;34424;52.234;6.500;2024-01-30T19:59:21;102956.1;;;5.74
48628;BMP280;34424;52.234;6.500;2024-01-30T20:04:21;102965.6;;;5.74
48628;BMP280;34424;52.234;6.500;2024-01-30T20:09:21;102974.2;;;5.73
48628;BMP280;34424;52.234;6.500;2024-01-30T20:14:21;102980.5;;;5.7
48628;BMP280;34424;52.234;6.500;2024-01-30T20:19:21;102991.2;;;5.63
48628;BMP280;34424;52.234;6.500;2024-01-30T20:24:21;102995;;;5.58
48628;BMP280;34424;52.234;6.500;2024-01-30T20:29:21;103002.5;;;5.49
48628;BMP280;34424;52.234;6.500;2024-01-30T20:34:21;103007.1;;;5.44
48628;BMP280;34424;52.234;6.500;2024-01-30T20:39:21;103016.3;;;5.39
48628;BMP280;34424;52.234;6.500;2024-01-30T20:44:21;103032.8;;;5.37
48628;BMP280;34424;52.234;6.500;2024-01-30T20:49:21;103044.1;;;5.31
48628;BMP280;34424;52.234;6.500;2024-01-30T20:54:21;103056.9;;;5.28
48628;BMP280;34424;52.234;6.500;2024-01-30T20:59:21;103060.3;;;5.21
48628;BMP280;34424;52.234;6.500;2024-01-30T21:04:21;103059.5;;;5.14
48628;BMP280;34424;52.234;6.500;2024-01-30T21:09:21;103059.7;;;5.09
48628;BMP280;34424;52.234;6.500;2024-01-30T21:14:21;103053.6;;;5.03
48628;BMP280;34424;52.234;6.500;2024-01-30T21:19:21;103060.8;;;5.06
48628;BMP280;34424;52.234;6.500;2024-01-30T21:24:21;103068.2;;;5.07
48628;BMP280;34424;52.234;6.500;2024-01-30T21:29:21;103073.1;;;5.08
48628;BMP280;34424;52.234;6.500;2024-01-30T21:34:21;103076.7;;;5.1
48628;BMP280;34424;52.234;6.500;2024-01-30T21:39:21;103078.2;;;5.03
48628;BMP280;34424;52.234;6.500;2024-01-30T21:44:21;103084.2;;;5.04
48628;BMP280;34424;52.234;6.500;2024-01-30T21:49:21;103093.4;;;4.89
48628;BMP280;34424;52.234;6.500;2024-01-30T21:54:21;103092.3;;;4.69
48628;BMP280;34424;52.234;6.500;2024-01-30T21:59:21;103095.9;;;4.54
48628;BMP280;34424;52.234;6.500;2024-01-30T22:04:21;103098.8;;;4.49
48628;BMP280;34424;52.234;6.500;2024-01-30T22:09:21;103104;;;4.44
48628;BMP280;34424;52.234;6.500;2024-01-30T22:14:21;103102.6;;;4.34
48628;BMP280;34424;52.234;6.500;2024-01-30T22:19:21;103119.2;;;4.29
48628;BMP280;34424;52.234;6.500;2024-01-30T22:24:21;103120.4;;;4.22
48628;BMP280;34424;52.234;6.500;2024-01-30T22:29:21;103126.7;;;4.16
48628;BMP280;34424;52.234;6.500;2024-01-30T22:34:21;103128.3;;;4.02
48628;BMP280;34424;52.234;6.500;2024-01-30T22:39:21;103133.9;;;3.85
48628;BMP280;34424;52.234;6.500;2024-01-30T22:44:21;103139.1;;;3.75
48628;BMP280;34424;52.234;6.500;2024-01-30T22:49:21;103138.6;;;3.62
48628;BMP280;34424;52.234;6.500;2024-01-30T22:54:21;103144.6;;;3.5
48628;BMP280;34424;52.234;6.500;2024-01-30T22:59:21;103148;;;3.46
48628;BMP280;34424;52.234;6.500;2024-01-30T23:04:21;103161.1;;;3.63
48628;BMP280;34424;52.234;6.500;2024-01-30T23:09:21;103163.2;;;3.63
48628;BMP280;34424;52.234;6.500;2024-01-30T23:14:21;103162.3;;;3.46
48628;BMP280;34424;52.234;6.500;2024-01-30T23:19:21;103164.3;;;3.14
48628;BMP280;34424;52.234;6.500;2024-01-30T23:24:21;103177.5;;;2.83
48628;BMP280;34424;52.234;6.500;2024-01-30T23:29:21;103194.7;;;2.62
48628;BMP280;34424;52.234;6.500;2024-01-30T23:34:21;103193.4;;;2.64
48628;BMP280;34424;52.234;6.500;2024-01-30T23:39:21;103190.1;;;2.89
48628;BMP280;34424;52.234;6.500;2024-01-30T23:44:21;103189.9;;;3.12
48628;BMP280;34424;52.234;6.500;2024-01-30T23:49:22;103193.7;;;3.31
48628;BMP280;34424;52.234;6.500;2024-01-30T23:54:21;103204.6;;;3.35
48628;BMP280;34424;52.234;6.500;2024-01-30T23:59:22;103206.5;;;3.44
